Time;durP1;ratioP1;P1;durP2;ratioP2;P2;SDS_P1;SDS_P2;PMS_P1;PMS_P2;Temp;Humidity;BMP_temperature;BMP_pressure;BME280_temperature;BME280_humidity;BME280_pressure;Samples;Min_cycle;Max_cycle;Signal;HPM_P1;HPM_P2
2023/05/12 00:00:40;;;;;;;15.98;14.40;;;;;;;12.37;100.00;101441.88;4983561;28;20034;-64
2023/05/12 00:03:05;;;;;;;14.80;13.43;;;;;;;12.37;100.00;101434.06;4988305;28;20493;-64
2023/05/12 00:05:31;;;;;;;14.20;12.80;;;;;;;12.35;100.00;101438.31;4976077;28;20034;-64
2023/05/12 00:07:56;;;;;;;15.82;11.85;;;;;;;12.32;100.00;101435.63;4988727;28;20084;-64
2023/05/12 00:10:22;;;;;;;11.98;10.68;;;;;;;12.28;100.00;101436.34;4988309;28;20030;-64
2023/05/12 00:12:47;;;;;;;10.73;9.65;;;;;;;12.17;100.00;101439.47;4988584;28;20022;-64
2023/05/12 00:15:13;;;;;;;10.40;9.40;;;;;;;12.11;100.00;101436.63;4987105;28;20533;-64
2023/05/12 00:17:38;;;;;;;10.27;8.43;;;;;;;12.07;100.00;101440.81;4988388;28;20023;-64
2023/05/12 00:20:05;;;;;;;9.38;8.43;;;;;;;12.00;100.00;101439.72;4986894;28;20022;-64
2023/05/12 00:22:30;;;;;;;10.38;9.32;;;;;;;11.98;100.00;101435.31;4970756;28;20065;-64
2023/05/12 00:24:56;;;;;;;9.05;8.15;;;;;;;11.95;100.00;101435.16;4985035;28;20034;-64
2023/05/12 00:27:21;;;;;;;9.65;8.75;;;;;;;11.93;100.00;101437.72;4988296;28;20179;-64
2023/05/12 00:29:46;;;;;;;9.43;8.43;;;;;;;11.89;100.00;101441.91;4988085;28;20030;-64
2023/05/12 00:32:12;;;;;;;8.65;7.85;;;;;;;11.85;100.00;101434.88;4988282;28;20049;-64
2023/05/12 00:34:37;;;;;;;9.68;8.65;;;;;;;11.83;100.00;101433.03;4977487;28;20106;-64
2023/05/12 00:37:02;;;;;;;9.43;8.48;;;;;;;11.83;100.00;101433.03;4987807;28;20050;-65
2023/05/12 00:39:28;;;;;;;10.15;9.20;;;;;;;11.85;100.00;101426.19;4988346;28;20096;-64
2023/05/12 00:41:57;;;;;;;9.70;8.75;;;;;;;11.85;100.00;101428.78;4957410;28;20109;-64
2023/05/12 00:44:23;;;;;;;11.20;8.07;;;;;;;11.82;100.00;101431.28;4978519;28;20035;-64
2023/05/12 00:46:49;;;;;;;9.40;8.50;;;;;;;11.81;100.00;101432.09;4967937;28;20049;-64
2023/05/12 00:49:14;;;;;;;9.63;8.35;;;;;;;11.81;100.00;101432.09;4987380;28;20026;-64
2023/05/12 00:51:40;;;;;;;10.65;9.07;;;;;;;11.79;100.00;101428.53;4979975;28;20323;-64
2023/05/12 00:54:05;;;;;;;10.43;9.32;;;;;;;11.76;100.00;101430.19;4988540;28;20534;-64
2023/05/12 00:56:34;;;;;;;9.95;8.95;;;;;;;11.74;100.00;101423.19;4986627;28;20030;-64
2023/05/12 00:59:00;;;;;;;9.82;8.82;;;;;;;11.71;100.00;101423.94;4976189;28;20046;-64
2023/05/12 01:01:25;;;;;;;10.52;9.40;;;;;;;11.65;100.00;101421.16;4987255;28;20026;-64
2023/05/12 01:03:51;;;;;;;11.20;10.18;;;;;;;11.64;100.00;101421.97;4987814;28;20045;-64
2023/05/12 01:06:31;;;;;;;11.18;10.18;;;;;;;11.64;100.00;101422.84;4987619;28;20529;-64
2023/05/12 01:08:57;;;;;;;11.40;10.30;;;;;;;11.64;100.00;101421.97;4988115;28;20395;-64
2023/05/12 01:11:23;;;;;;;12.13;10.73;;;;;;;11.64;100.00;101419.34;4987720;28;20037;-64
2023/05/12 01:13:48;;;;;;;11.10;10.00;;;;;;;11.62;100.00;101415.84;4987540;28;20084;-64
2023/05/12 01:16:15;;;;;;;11.25;10.13;;;;;;;11.62;100.00;101414.13;4987524;28;20068;-64
2023/05/12 01:18:48;;;;;;;12.10;10.88;;;;;;;11.60;100.00;101414.91;4986961;28;20085;-64
2023/05/12 01:21:14;;;;;;;11.55;10.45;;;;;;;11.62;100.00;101413.25;4979428;28;20030;-64
2023/05/12 01:23:45;;;;;;;12.60;11.07;;;;;;;11.60;100.00;101409.72;4982809;28;20065;-64
2023/05/12 01:26:11;;;;;;;12.32;11.02;;;;;;;11.59;100.00;101405.34;4987208;28;20041;-64
2023/05/12 01:28:39;;;;;;;12.40;11.30;;;;;;;11.58;100.00;101406.16;4986796;28;20461;-64
2023/05/12 01:31:07;;;;;;;13.95;12.60;;;;;;;11.55;100.00;101401.72;4987806;28;20452;-64
2023/05/12 01:33:33;;;;;;;12.77;11.63;;;;;;;11.56;100.00;101400.03;4987666;28;20522;-64
2023/05/12 01:35:58;;;;;;;13.57;12.18;;;;;;;11.56;100.00;101406.13;4978325;28;20165;-64
2023/05/12 01:38:24;;;;;;;13.05;11.82;;;;;;;11.57;100.00;101404.38;4984867;28;20258;-64
2023/05/12 01:40:49;;;;;;;13.65;12.27;;;;;;;11.56;100.00;101394.84;4987191;28;20033;-64
2023/05/12 01:43:15;;;;;;;13.98;11.82;;;;;;;11.54;100.00;101394.78;4987099;28;20022;-64
2023/05/12 01:45:40;;;;;;;13.20;11.98;;;;;;;11.55;100.00;101393.09;4975756;28;20030;-64
2023/05/12 01:48:05;;;;;;;12.60;11.40;;;;;;;11.55;100.00;101395.69;4987377;28;20081;-64
2023/05/12 01:50:31;;;;;;;12.93;11.80;;;;;;;11.53;100.00;101396.50;4986436;28;20533;-64
2023/05/12 01:52:56;;;;;;;11.85;10.75;;;;;;;11.53;100.00;101396.50;4972588;28;20026;-64
2023/05/12 01:55:21;;;;;;;11.88;10.75;;;;;;;11.51;100.00;101394.69;4987986;28;20085;-64
2023/05/12 01:57:46;;;;;;;12.57;11.32;;;;;;;11.49;100.00;101389.44;4985681;28;20034;-64
2023/05/12 02:00:12;;;;;;;11.60;10.50;;;;;;;11.47;100.00;101396.28;4986310;28;20030;-64
2023/05/12 02:02:37;;;;;;;11.60;10.50;;;;;;;11.44;100.00;101390.94;4987647;28;20105;-64
2023/05/12 02:05:03;;;;;;;11.07;9.98;;;;;;;11.41;100.00;101390.84;4987427;28;20058;-64
2023/05/12 02:07:28;;;;;;;11.85;10.40;;;;;;;11.39;100.00;101382.13;4984104;28;20116;-64
2023/05/12 02:09:53;;;;;;;13.75;12.35;;;;;;;11.40;100.00;101376.13;4987074;28;20026;-64
2023/05/12 02:12:19;;;;;;;12.07;10.88;;;;;;;11.39;100.00;101377.81;4986598;28;20057;-64
2023/05/12 02:14:44;;;;;;;10.50;9.45;;;;;;;11.36;100.00;101377.72;4987419;28;20026;-64
2023/05/12 02:17:09;;;;;;;9.93;8.93;;;;;;;11.33;100.00;101379.31;4987325;28;20506;-64
2023/05/12 02:19:34;;;;;;;9.93;8.65;;;;;;;11.29;100.00;101384.38;4990652;28;20022;-64
2023/05/12 02:22:00;;;;;;;8.95;8.10;;;;;;;11.27;100.00;101378.25;4978295;28;20093;-64
2023/05/12 02:24:25;;;;;;;9.30;8.40;;;;;;;11.26;100.00;101373.88;4978501;28;20031;-64
2023/05/12 02:26:50;;;;;;;10.02;8.93;;;;;;;11.25;100.00;101377.31;4975069;28;20041;-64
2023/05/12 02:29:16;;;;;;;8.00;7.20;;;;;;;11.25;100.00;101369.53;4979506;28;20085;-64
2023/05/12 02:31:41;;;;;;;8.55;7.60;;;;;;;11.24;100.00;101367.75;4977744;28;20022;-64
2023/05/12 02:34:06;;;;;;;7.93;7.15;;;;;;;11.23;100.00;101363.38;4990736;28;20034;-64
2023/05/12 02:36:32;;;;;;;8.68;7.88;;;;;;;11.22;100.00;101364.22;4990947;28;20022;-64
2023/05/12 02:38:57;;;;;;;8.20;7.40;;;;;;;11.20;100.00;101365.88;4981409;28;20089;-64
2023/05/12 02:41:22;;;;;;;7.40;6.57;;;;;;;11.17;100.00;101361.44;4976864;28;20108;-64
2023/05/12 02:43:48;;;;;;;7.68;6.90;;;;;;;11.17;100.00;101366.63;4989508;28;20185;-64
2023/05/12 02:46:13;;;;;;;6.50;5.90;;;;;;;11.14;100.00;101363.94;4990657;28;20202;-64
2023/05/12 02:48:38;;;;;;;6.80;6.20;;;;;;;11.12;100.00;101352.59;4990617;28;20042;-64
2023/05/12 02:51:04;;;;;;;6.65;6.00;;;;;;;11.12;100.00;101351.72;4989234;28;20045;-64
2023/05/12 02:53:29;;;;;;;7.30;5.72;;;;;;;11.12;100.00;101349.13;4983181;28;20018;-65
2023/05/12 02:55:55;;;;;;;6.13;5.53;;;;;;;11.11;100.00;101344.78;4975972;28;20113;-64
2023/05/12 02:58:21;;;;;;;6.43;5.45;;;;;;;11.08;100.00;101352.44;4985486;28;20055;-64
2023/05/12 03:00:46;;;;;;;5.78;5.20;;;;;;;11.04;100.00;101339.34;4990250;28;20093;-64
2023/05/12 03:03:11;;;;;;;6.22;5.32;;;;;;;11.04;100.00;101348.84;4981962;28;20157;-64
2023/05/12 03:05:37;;;;;;;5.60;4.95;;;;;;;11.03;100.00;101347.94;4990107;28;20034;-64
2023/05/12 03:08:02;;;;;;;5.30;4.80;;;;;;;11.02;100.00;101333.22;4989713;28;20022;-64
2023/05/12 03:10:27;;;;;;;4.97;4.47;;;;;;;11.02;100.00;101338.41;4990102;28;20030;-64
2023/05/12 03:12:53;;;;;;;5.05;4.55;;;;;;;11.03;100.00;101334.97;4977662;28;20530;-64
2023/05/12 03:15:18;;;;;;;4.85;4.45;;;;;;;11.03;100.00;101327.19;4989889;28;20399;-64
2023/05/12 03:17:43;;;;;;;4.72;4.30;;;;;;;11.03;100.00;101327.19;4988793;28;20479;-64
2023/05/12 03:20:11;;;;;;;5.50;4.70;;;;;;;11.02;100.00;101334.94;4989856;28;20050;-64
2023/05/12 03:22:36;;;;;;;4.28;3.90;;;;;;;11.00;100.00;101329.69;4976885;28;20398;-64
2023/05/12 03:25:03;;;;;;;5.18;4.57;;;;;;;10.98;100.00;101326.16;4990392;28;20026;-64
2023/05/12 03:27:31;;;;;;;5.00;4.50;;;;;;;10.96;100.00;101325.19;4988768;28;20053;-64
2023/05/12 03:29:56;;;;;;;5.68;5.07;;;;;;;10.95;100.00;101322.56;4987252;28;20030;-64
2023/05/12 03:32:21;;;;;;;5.43;4.82;;;;;;;10.95;100.00;101319.97;4989416;28;20041;-64
2023/05/12 03:34:47;;;;;;;6.38;5.60;;;;;;;10.93;100.00;101318.22;4989301;28;20026;-64
2023/05/12 03:37:12;;;;;;;5.97;4.70;;;;;;;10.92;100.00;101312.94;4989887;28;20019;-64
2023/05/12 03:39:37;;;;;;;5.95;5.18;;;;;;;10.93;100.00;101304.34;4989633;28;20056;-64
2023/05/12 03:42:03;;;;;;;6.88;5.97;;;;;;;10.93;100.00;101310.44;4988843;28;20038;-64
2023/05/12 03:44:28;;;;;;;6.35;5.72;;;;;;;10.93;100.00;101304.34;4985855;28;20471;-64
2023/05/12 03:46:53;;;;;;;7.38;6.60;;;;;;;10.93;100.00;101301.75;4988436;28;20029;-64
2023/05/12 03:49:19;;;;;;;8.45;6.90;;;;;;;10.93;100.00;101305.25;4988931;28;20467;-64
2023/05/12 03:51:44;;;;;;;8.90;7.65;;;;;;;10.89;100.00;101302.44;4988957;28;20019;-64
2023/05/12 03:54:09;;;;;;;10.23;8.15;;;;;;;10.90;100.00;101304.25;4988856;28;20602;-64
2023/05/12 03:56:35;;;;;;;10.02;8.10;;;;;;;10.90;100.00;101306.84;4988692;28;20018;-64
2023/05/12 03:59:00;;;;;;;9.93;8.02;;;;;;;10.89;100.00;101305.03;4989367;28;20033;-64
2023/05/12 04:01:25;;;;;;;10.52;8.38;;;;;;;10.90;100.00;101310.28;4988941;28;20085;-64
2023/05/12 04:03:50;;;;;;;12.55;9.85;;;;;;;10.90;100.00;101299.06;4988257;28;20022;-64
2023/05/12 04:06:16;;;;;;;11.70;9.18;;;;;;;10.91;100.00;101301.69;4969189;28;20018;-64
2023/05/12 04:08:41;;;;;;;13.68;9.98;;;;;;;10.90;100.00;101304.25;4969719;28;20022;-64
2023/05/12 04:11:06;;;;;;;12.77;10.13;;;;;;;10.90;100.00;101301.66;4986274;28;20505;-64
2023/05/12 04:13:32;;;;;;;13.20;10.20;;;;;;;10.89;100.00;101300.75;4987408;28;20026;-64
2023/05/12 04:15:58;;;;;;;12.82;9.88;;;;;;;10.86;100.00;101304.94;4986790;28;20471;-64
2023/05/12 04:18:27;;;;;;;15.65;10.52;;;;;;;10.87;100.00;101301.50;4986558;28;20038;-64
2023/05/12 04:20:53;;;;;;;17.08;11.90;;;;;;;10.89;100.00;101302.44;4986859;28;20089;-65
2023/05/12 04:23:18;;;;;;;14.82;11.27;;;;;;;10.90;100.00;101309.44;4986978;28;20034;-64
2023/05/12 04:25:44;;;;;;;15.00;11.52;;;;;;;10.91;100.00;101295.63;4981513;28;20130;-64
2023/05/12 04:28:09;;;;;;;17.38;12.02;;;;;;;10.89;100.00;101297.28;4967685;28;20027;-64
2023/05/12 04:30:36;;;;;;;18.25;13.68;;;;;;;10.91;100.00;101295.63;4981466;28;20022;-64
2023/05/12 04:33:01;;;;;;;17.02;12.88;;;;;;;10.92;100.00;101305.16;4984949;28;20526;-64
2023/05/12 04:35:27;;;;;;;20.50;13.43;;;;;;;10.90;100.00;101299.06;4987408;28;20034;-64
2023/05/12 04:37:53;;;;;;;21.73;15.55;;;;;;;10.89;100.00;101294.69;4987070;28;20054;-64
2023/05/12 04:40:18;;;;;;;24.67;15.95;;;;;;;10.88;100.00;101300.69;4986650;28;20038;-64
2023/05/12 04:42:43;;;;;;;23.17;15.23;;;;;;;10.88;100.00;101303.28;4987924;28;20018;-64
2023/05/12 04:45:09;;;;;;;24.40;17.63;;;;;;;10.89;100.00;101305.03;4986999;28;20033;-64
2023/05/12 04:47:35;;;;;;;23.58;16.60;;;;;;;10.89;100.00;101307.63;4958970;28;20031;-64
2023/05/12 04:50:00;;;;;;;24.73;17.38;;;;;;;10.90;100.00;101309.44;4979760;28;20023;-64
2023/05/12 04:52:25;;;;;;;27.35;17.75;;;;;;;10.87;100.00;101305.00;4979159;28;20034;-64
2023/05/12 04:54:51;;;;;;;25.85;17.70;;;;;;;10.90;100.00;101304.25;4986126;28;20386;-64
2023/05/12 04:57:16;;;;;;;29.77;19.20;;;;;;;10.90;100.00;101301.66;4987179;28;20019;-64
2023/05/12 04:59:42;;;;;;;29.98;19.90;;;;;;;10.90;100.00;101310.28;4960493;28;20030;-65
2023/05/12 05:02:08;;;;;;;30.88;20.80;;;;;;;10.92;100.00;101307.75;4984298;28;20026;-64
2023/05/12 05:04:33;;;;;;;33.10;21.50;;;;;;;10.94;100.00;101313.88;4983499;28;20474;-64
2023/05/12 05:06:58;;;;;;;33.75;22.50;;;;;;;10.96;100.00;101313.94;4987742;28;20076;-64
2023/05/12 05:09:24;;;;;;;35.85;22.80;;;;;;;10.96;100.00;101312.25;4988020;28;20026;-64
2023/05/12 05:11:49;;;;;;;36.65;23.67;;;;;;;10.98;100.00;101318.38;4987885;28;20437;-64
2023/05/12 05:14:14;;;;;;;38.40;24.20;;;;;;;11.01;100.00;101321.06;4987737;28;20029;-64
2023/05/12 05:16:40;;;;;;;39.33;25.02;;;;;;;11.02;100.00;101315.06;4987340;28;20092;-64
2023/05/12 05:19:05;;;;;;;39.22;25.13;;;;;;;11.04;100.00;101326.38;4970103;28;20027;-64
2023/05/12 05:21:31;;;;;;;37.17;24.13;;;;;;;11.05;100.00;101330.75;4985489;28;20403;-64
2023/05/12 05:23:56;;;;;;;36.72;24.55;;;;;;;11.08;100.00;101324.78;4986233;28;20026;-64
2023/05/12 05:26:21;;;;;;;41.78;26.48;;;;;;;11.10;100.00;101332.63;4983719;28;20034;-64
2023/05/12 05:28:47;;;;;;;37.58;25.15;;;;;;;11.14;100.00;101331.91;4977560;28;20097;-64
2023/05/12 05:31:16;;;;;;;35.10;24.88;;;;;;;11.16;100.00;101330.25;4969802;28;20062;-64
2023/05/12 05:33:44;;;;;;;38.50;24.83;;;;;;;11.17;100.00;101335.50;4980062;28;20036;-64
2023/05/12 05:36:09;;;;;;;39.63;25.83;;;;;;;11.20;100.00;101339.94;4987223;28;20030;-64
2023/05/12 05:38:35;;;;;;;38.92;25.02;;;;;;;11.23;100.00;101340.03;4986308;28;20018;-65
2023/05/12 05:41:00;;;;;;;39.20;26.40;;;;;;;11.26;100.00;101344.47;4979424;28;20039;-64
2023/05/12 05:43:25;;;;;;;39.70;25.98;;;;;;;11.28;100.00;101342.78;4969558;28;20081;-64
2023/05/12 05:45:51;;;;;;;39.50;25.40;;;;;;;11.29;100.00;101340.28;4986992;28;20033;-64
2023/05/12 05:48:17;;;;;;;40.67;28.02;;;;;;;11.33;100.00;101350.78;4985618;28;20050;-64
2023/05/12 05:50:42;;;;;;;39.20;26.05;;;;;;;11.36;100.00;101351.78;4987551;28;20037;-64
2023/05/12 05:53:08;;;;;;;41.85;27.08;;;;;;;11.40;100.00;101356.22;4991187;28;20033;-64
2023/05/12 05:55:33;;;;;;;40.72;26.98;;;;;;;11.42;100.00;101356.31;4979840;28;20475;-64
2023/05/12 05:57:58;;;;;;;40.72;27.92;;;;;;;11.45;100.00;101355.50;4990907;28;20084;-64
2023/05/12 06:00:23;;;;;;;42.45;27.42;;;;;;;11.49;100.00;101367.78;4991577;28;20018;-65
2023/05/12 06:02:49;;;;;;;41.83;27.95;;;;;;;11.51;100.00;101366.13;4979964;28;20030;-64
2023/05/12 06:05:14;;;;;;;41.42;27.98;;;;;;;11.53;100.00;101367.09;4991077;28;20097;-64
2023/05/12 06:07:39;;;;;;;38.10;26.73;;;;;;;11.55;100.00;101374.91;4974394;28;20462;-64
2023/05/12 06:10:05;;;;;;;39.28;27.50;;;;;;;11.57;100.00;101370.63;4985340;28;20034;-65
2023/05/12 06:12:31;;;;;;;39.13;27.88;;;;;;;11.61;100.00;101385.50;4977244;28;20113;-65
2023/05/12 06:14:56;;;;;;;36.25;27.10;;;;;;;11.65;100.00;101380.50;4988893;28;20097;-64
2023/05/12 06:17:21;;;;;;;39.13;27.17;;;;;;;11.69;100.00;101381.50;4989186;28;20358;-64
2023/05/12 06:19:48;;;;;;;39.45;29.90;;;;;;;11.74;100.00;101387.75;4990672;28;20386;-65
2023/05/12 06:22:14;;;;;;;40.17;28.77;;;;;;;11.82;100.00;101397.50;4986494;28;20424;-65
2023/05/12 06:24:40;;;;;;;40.78;30.98;;;;;;;11.86;100.00;101400.25;4981139;28;20061;-64
2023/05/12 06:27:06;;;;;;;37.20;27.42;;;;;;;11.92;100.00;101399.59;4990414;28;20497;-64
2023/05/12 06:29:31;;;;;;;35.90;28.13;;;;;;;11.96;100.00;101411.84;4980638;28;20030;-65
2023/05/12 06:31:56;;;;;;;34.35;26.15;;;;;;;12.00;100.00;101405.06;4981239;28;20030;-65
2023/05/12 06:34:22;;;;;;;34.40;26.83;;;;;;;12.03;100.00;101406.88;4990637;28;20053;-64
2023/05/12 06:36:47;;;;;;;34.83;27.27;;;;;;;12.07;100.00;101408.78;4990843;28;20030;-64
2023/05/12 06:39:13;;;;;;;33.30;26.83;;;;;;;12.12;100.00;101408.09;4979138;28;20036;-64
2023/05/12 06:41:38;;;;;;;32.63;26.75;;;;;;;12.19;100.00;101414.44;4990664;28;20128;-65
2023/05/12 06:44:05;;;;;;;34.03;26.95;;;;;;;12.23;100.00;101416.28;4989442;28;20029;-64
2023/05/12 06:46:31;;;;;;;30.10;26.63;;;;;;;12.29;100.00;101414.72;4972703;28;20142;-67
2023/05/12 06:48:56;;;;;;;28.83;25.50;;;;;;;12.36;100.00;101414.09;4991020;28;20066;-64
2023/05/12 06:51:22;;;;;;;27.65;24.75;;;;;;;12.42;100.00;101427.31;4990561;28;20030;-65
2023/05/12 06:53:47;;;;;;;26.15;23.35;;;;;;;12.49;100.00;101424.09;4988212;28;20030;-64
2023/05/12 06:56:15;;;;;;;27.08;24.27;;;;;;;12.55;100.00;101422.53;4987264;28;20022;-65
2023/05/12 06:58:42;;;;;;;27.02;24.23;;;;;;;12.59;100.00;101430.47;4987791;28;20018;-65
2023/05/12 07:01:07;;;;;;;25.95;23.42;;;;;;;12.67;100.00;101430.72;4990017;28;20034;-64
2023/05/12 07:03:33;;;;;;;26.30;23.70;;;;;;;12.72;100.00;101434.34;4982528;28;20053;-65
2023/05/12 07:05:58;;;;;;;26.25;23.75;;;;;;;12.81;100.00;101433.78;4983414;28;20119;-64
2023/05/12 07:08:24;;;;;;;26.25;23.65;;;;;;;12.88;100.00;101433.97;4989837;28;20026;-65
2023/05/12 07:10:49;;;;;;;24.10;21.67;;;;;;;12.93;100.00;101441.06;4990337;28;20262;-64
2023/05/12 07:13:14;;;;;;;23.67;21.55;;;;;;;12.96;100.00;101438.59;4989155;28;20072;-65
2023/05/12 07:15:40;;;;;;;24.42;22.00;;;;;;;13.01;100.00;101446.53;4989592;28;20029;-65
2023/05/12 07:18:05;;;;;;;23.35;21.25;;;;;;;13.04;100.00;101443.16;4979165;28;20490;-64
2023/05/12 07:20:30;;;;;;;22.08;20.17;;;;;;;13.05;100.00;101448.41;4987388;28;20141;-65
2023/05/12 07:22:56;;;;;;;21.50;19.70;;;;;;;13.15;100.00;101446.97;4989830;28;20092;-64
2023/05/12 07:25:21;;;;;;;20.30;18.60;;;;;;;13.22;100.00;101442.84;4988946;28;20037;-65
2023/05/12 07:27:46;;;;;;;19.77;17.98;;;;;;;13.36;100.00;101447.56;4989246;28;20368;-65
2023/05/12 07:30:12;;;;;;;17.88;16.27;;;;;;;13.48;100.00;101454.84;4984877;28;20434;-65
2023/05/12 07:32:38;;;;;;;17.17;15.68;;;;;;;13.58;100.00;101451.75;4989800;28;20033;-65
2023/05/12 07:35:04;;;;;;;13.20;12.00;;;;;;;13.77;100.00;101457.47;4989801;28;20404;-64
2023/05/12 07:37:29;;;;;;;13.40;12.20;;;;;;;13.90;100.00;101449.19;4990254;28;20275;-65
2023/05/12 07:39:54;;;;;;;11.27;10.15;;;;;;;14.07;100.00;101453.94;4989128;28;20026;-65
2023/05/12 07:42:21;;;;;;;10.77;9.85;;;;;;;14.22;100.00;101457.81;4989125;28;20026;-65
2023/05/12 07:44:46;;;;;;;10.82;9.75;;;;;;;14.23;100.00;101464.81;4989734;28;20057;-65
2023/05/12 07:47:12;;;;;;;9.38;8.52;;;;;;;14.16;100.00;101464.63;4980181;28;20027;-65
2023/05/12 07:49:37;;;;;;;10.50;9.60;;;;;;;14.15;100.00;101467.19;4984842;28;20446;-65
2023/05/12 07:52:02;;;;;;;10.32;9.43;;;;;;;14.14;100.00;101470.63;4988444;28;20030;-65
2023/05/12 07:54:28;;;;;;;11.77;10.07;;;;;;;14.09;100.00;101470.53;4981482;28;20050;-65
2023/05/12 07:56:53;;;;;;;10.32;9.30;;;;;;;14.11;100.00;101484.47;4989489;28;20022;-65
2023/05/12 07:59:18;;;;;;;9.07;8.25;;;;;;;14.06;100.00;101480.88;4989198;28;20506;-65
2023/05/12 08:01:43;;;;;;;9.75;8.75;;;;;;;14.05;100.00;101474.75;4970889;28;20076;-65
2023/05/12 08:04:09;;;;;;;9.63;8.63;;;;;;;14.04;100.00;101483.44;4989114;28;20068;-65
2023/05/12 08:06:34;;;;;;;8.90;8.10;;;;;;;14.14;100.00;101479.34;4989160;28;20057;-64
2023/05/12 08:09:00;;;;;;;9.68;8.80;;;;;;;14.33;100.00;101479.84;4989311;28;20031;-65
2023/05/12 08:11:25;;;;;;;8.73;7.82;;;;;;;14.40;100.00;101487.00;4974760;28;20088;-65
2023/05/12 08:13:51;;;;;;;9.15;7.55;;;;;;;14.45;100.00;101488.81;4986400;28;20471;-65
2023/05/12 08:16:17;;;;;;;9.20;8.40;;;;;;;14.48;100.00;101483.72;4984804;28;20495;-65
2023/05/12 08:18:43;;;;;;;9.77;8.98;;;;;;;14.49;100.00;101493.28;4988175;28;20022;-65
2023/05/12 08:21:08;;;;;;;8.73;7.97;;;;;;;14.53;100.00;101487.31;4964280;28;20022;-65
2023/05/12 08:23:33;;;;;;;8.68;7.70;;;;;;;14.60;100.00;101486.63;4964913;28;20454;-65
2023/05/12 08:25:59;;;;;;;8.02;7.32;;;;;;;14.64;100.00;101501.50;4989053;28;20037;-65
2023/05/12 08:28:24;;;;;;;6.47;5.97;;;;;;;14.73;100.00;101500.00;4988156;28;20030;-65
2023/05/12 08:30:49;;;;;;;6.70;6.10;;;;;;;14.98;100.00;101500.63;4985293;28;20037;-64
2023/05/12 08:33:15;;;;;;;5.93;5.43;;;;;;;15.19;100.00;101502.84;4986123;28;20026;-65
2023/05/12 08:35:40;;;;;;;5.63;4.95;;;;;;;15.34;100.00;101498.84;4985628;28;20014;-65
2023/05/12 08:38:06;;;;;;;5.55;5.07;;;;;;;15.46;100.00;101498.22;4985450;28;20018;-65
2023/05/12 08:40:40;;;;;;;6.07;5.57;;;;;;;15.71;100.00;101509.22;4984644;28;20022;-65
2023/05/12 08:43:10;;;;;;;4.15;3.83;;;;;;;15.87;100.00;101497.34;4985541;28;20045;-65
2023/05/12 08:45:37;;;;;;;5.22;4.60;;;;;;;15.94;100.00;101499.22;4985010;28;20014;-65
2023/05/12 08:48:04;;;;;;;6.53;4.05;;;;;;;16.02;100.00;101512.50;4986102;28;20124;-65
2023/05/12 08:50:31;;;;;;;4.32;3.92;;;;;;;16.11;100.00;101501.34;4976187;28;20081;-65
2023/05/12 08:52:57;;;;;;;3.50;3.30;;;;;;;15.94;100.00;101514.03;4978837;28;20613;-65
2023/05/12 08:55:24;;;;;;;3.35;3.10;;;;;;;15.94;100.00;101511.41;4975771;28;20022;-65
2023/05/12 08:57:49;;;;;;;4.75;3.20;;;;;;;16.03;100.00;101519.47;4983748;28;20032;-65
2023/05/12 09:00:15;;;;;;;3.80;3.50;;;;;;;16.11;100.00;101517.03;4984063;28;20136;-65
2023/05/12 09:02:42;;;;;;;2.97;2.72;;;;;;;16.35;100.00;101507.00;4983467;28;20538;-65
2023/05/12 09:05:08;;;;;;;3.45;3.03;;;;;;;16.60;100.00;101512.69;4985793;28;20102;-65
2023/05/12 09:07:35;;;;;;;4.75;3.28;;;;;;;16.66;100.00;101507.53;4985666;28;20077;-65
2023/05/12 09:10:02;;;;;;;3.75;3.22;;;;;;;16.86;100.00;101525.31;4986430;28;20033;-65
2023/05/12 09:12:35;;;;;;;3.10;2.90;;;;;;;16.95;100.00;101515.00;4987086;28;20465;-65
2023/05/12 09:15:09;;;;;;;3.15;2.85;;;;;;;17.19;100.00;101518.91;4979341;28;20101;-65
2023/05/12 09:17:34;;;;;;;3.60;3.30;;;;;;;17.12;100.00;101517.06;4986906;28;20043;-64
2023/05/12 09:20:01;;;;;;;4.13;3.83;;;;;;;17.35;100.00;101514.78;4987701;28;20034;-65
2023/05/12 09:22:32;;;;;;;3.42;3.13;;;;;;;17.60;100.00;101516.84;4968952;28;20189;-65
2023/05/12 09:24:58;;;;;;;3.55;3.10;;;;;;;17.85;100.00;101525.03;4978549;28;20526;-65
2023/05/12 09:27:25;;;;;;;4.22;3.00;;;;;;;17.92;100.00;101521.63;4983167;28;20163;-64
2023/05/12 09:29:50;;;;;;;2.97;2.40;;;;;;;18.11;100.00;101524.47;4979346;28;20033;-65
2023/05/12 09:32:16;;;;;;;4.20;2.75;;;;;;;18.15;99.59;101515.78;4961139;28;20026;-65
2023/05/12 09:34:42;;;;;;;3.50;3.10;;;;;;;18.14;100.00;101514.03;4979602;28;20023;-65
2023/05/12 09:37:08;;;;;;;2.65;2.38;;;;;;;18.20;100.00;101526.34;4979231;28;20565;-65
2023/05/12 09:39:34;;;;;;;2.35;2.13;;;;;;;18.23;99.74;101527.28;4981465;28;20029;-65
2023/05/12 09:42:00;;;;;;;2.40;2.17;;;;;;;18.42;98.50;101516.09;4982192;28;20076;-65
2023/05/12 09:44:27;;;;;;;2.40;2.20;;;;;;;18.51;96.80;101520.56;4985389;28;20019;-65
2023/05/12 09:46:53;;;;;;;3.35;2.05;;;;;;;18.41;95.24;101522.19;4985878;28;20101;-65
2023/05/12 09:49:19;;;;;;;2.72;2.03;;;;;;;18.43;96.91;101528.34;4986551;28;20453;-65
2023/05/12 09:51:45;;;;;;;2.28;2.03;;;;;;;18.36;95.29;101532.66;4982817;28;20031;-64
2023/05/12 09:54:11;;;;;;;3.40;2.28;;;;;;;18.45;99.92;101527.50;4980986;28;20113;-65
2023/05/12 09:56:40;;;;;;;2.67;2.47;;;;;;;18.44;96.42;101530.97;4987444;28;20129;-65
2023/05/12 09:59:05;;;;;;;1.85;1.75;;;;;;;18.26;93.86;101533.41;4976240;28;20418;-65
2023/05/12 10:01:30;;;;;;;2.22;2.03;;;;;;;18.17;95.60;101548.16;4987647;28;20026;-65
2023/05/12 10:03:57;;;;;;;3.08;2.67;;;;;;;17.81;93.00;101546.84;4985023;28;20100;-65
2023/05/12 10:06:32;;;;;;;2.50;2.30;;;;;;;17.69;94.38;101532.69;4976437;28;20031;-65
2023/05/12 10:09:22;;;;;;;4.22;2.35;;;;;;;17.54;96.32;101530.75;4987756;28;20467;-65
2023/05/12 10:11:49;;;;;;;2.88;2.17;;;;;;;17.34;97.77;101548.81;4986289;28;20033;-65
2023/05/12 10:14:15;;;;;;;3.05;2.67;;;;;;;17.36;98.37;101544.47;4985714;28;20034;-64
2023/05/12 10:16:44;;;;;;;4.28;2.63;;;;;;;17.54;98.91;101540.38;4985828;28;20062;-65
2023/05/12 10:19:09;;;;;;;2.92;2.40;;;;;;;17.68;97.20;101548.41;4982217;28;20031;-65
2023/05/12 10:21:36;;;;;;;2.90;2.20;;;;;;;17.83;96.44;101547.72;4968250;28;20035;-63
2023/05/12 10:24:02;;;;;;;2.75;2.20;;;;;;;18.07;95.91;101541.03;4963468;28;20122;-63
2023/05/12 10:26:28;;;;;;;2.80;2.60;;;;;;;18.36;98.68;101544.03;4978959;28;20118;-63
2023/05/12 10:28:54;;;;;;;2.70;2.50;;;;;;;18.60;94.85;101542.50;4985925;28;20026;-63
2023/05/12 10:31:21;;;;;;;2.35;2.15;;;;;;;18.81;90.12;101540.94;4973782;28;20037;-63
2023/05/12 10:33:57;;;;;;;1.98;1.63;;;;;;;18.90;85.25;101545.41;4958135;28;20422;-63
2023/05/12 10:36:23;;;;;;;1.85;1.70;;;;;;;18.86;81.80;101554.09;4974763;28;20379;-63
2023/05/12 10:38:48;;;;;;;2.78;2.00;;;;;;;18.47;84.78;101546.72;4988267;28;20029;-63
2023/05/12 10:41:15;;;;;;;3.45;2.03;;;;;;;18.17;85.58;101542.91;4966901;28;20026;-65
2023/05/12 10:43:44;;;;;;;4.88;2.30;;;;;;;18.12;86.12;101544.59;4984908;28;20030;-65
2023/05/12 10:46:19;;;;;;;4.65;2.30;;;;;;;18.10;90.94;101551.53;4989550;28;20104;-65
2023/05/12 10:48:54;;;;;;;4.18;2.40;;;;;;;18.12;87.43;101552.44;4990490;28;20506;-65
2023/05/12 10:51:25;;;;;;;2.83;2.08;;;;;;;17.96;86.15;101549.66;4989175;28;20122;-65
2023/05/12 10:54:01;;;;;;;3.20;2.60;;;;;;;18.03;90.48;101547.09;4990617;28;20364;-65
2023/05/12 10:56:28;;;;;;;5.30;2.53;;;;;;;17.73;89.91;101550.25;4990710;28;20370;-64
2023/05/12 10:59:26;;;;;;;2.70;2.50;;;;;;;17.85;89.77;101561.72;4989444;28;20026;-64
2023/05/12 11:02:02;;;;;;;3.42;2.63;;;;;;;18.05;94.20;101546.25;4944259;28;20046;-65
2023/05/12 11:04:39;;;;;;;4.00;2.50;;;;;;;18.24;96.38;101555.25;4978547;28;20030;-65